Berezovo, Russia
Current Conditions -  °F | °C
As of 4:30 AM on Wednesday 22 Oct 2014 (Local Time) from USHH Reporting Station
Overcast Overcast  
Wind Chill: -11°   Ceiling: 600
Heat Index:   Visibility: 6mi
Dew Point:   Wind: 9mph
Humidity: 85%   Direction: 260°W
Pressure: 29.8"   Gusts: NA
Location:  63.93°N, 65.05°E
Report Text: USHH 212330Z 26004MPS 9000 BKN006CB OVC080 M16/M18 Q1009 TEMPO1400 SHSN BKN003 RMK QBB200 QFE753 24////50
Loading
Personal Weather Stations






























Interactive Weather Map
Tropical Storm Tracking
New forecast layout! Learn more

10-Day Weather Forecast

Advertisements
Track Severe Weather on mobile